sensor_id;sensor_type;location;lat;lon;timestamp;P1;durP1;ratioP1;P2;durP2;ratioP2
20970;SDS011;10644;48.834;10.088;2023-11-19T00:00:18;22.80;;;11.57;;
20970;SDS011;10644;48.834;10.088;2023-11-19T00:02:43;30.17;;;14.23;;
20970;SDS011;10644;48.834;10.088;2023-11-19T00:05:09;20.57;;;12.60;;
20970;SDS011;10644;48.834;10.088;2023-11-19T00:07:36;17.48;;;10.77;;
20970;SDS011;10644;48.834;10.088;2023-11-19T00:10:06;13.75;;;8.30;;
20970;SDS011;10644;48.834;10.088;2023-11-19T00:12:41;15.63;;;8.67;;
20970;SDS011;10644;48.834;10.088;2023-11-19T00:15:09;14.13;;;8.13;;
20970;SDS011;10644;48.834;10.088;2023-11-19T00:17:42;13.67;;;9.17;;
20970;SDS011;10644;48.834;10.088;2023-11-19T00:20:11;18.80;;;9.33;;
20970;SDS011;10644;48.834;10.088;2023-11-19T00:22:37;16.10;;;10.23;;
20970;SDS011;10644;48.834;10.088;2023-11-19T00:25:02;18.30;;;11.00;;
20970;SDS011;10644;48.834;10.088;2023-11-19T00:27:28;16.40;;;9.97;;
20970;SDS011;10644;48.834;10.088;2023-11-19T00:29:54;14.60;;;9.63;;
20970;SDS011;10644;48.834;10.088;2023-11-19T00:32:19;12.50;;;8.67;;
20970;SDS011;10644;48.834;10.088;2023-11-19T00:34:44;13.80;;;9.90;;
20970;SDS011;10644;48.834;10.088;2023-11-19T00:37:10;16.80;;;10.97;;
20970;SDS011;10644;48.834;10.088;2023-11-19T00:39:35;17.90;;;11.37;;
20970;SDS011;10644;48.834;10.088;2023-11-19T00:42:01;18.27;;;11.77;;
20970;SDS011;10644;48.834;10.088;2023-11-19T00:44:26;16.83;;;10.17;;
20970;SDS011;10644;48.834;10.088;2023-11-19T00:46:51;13.87;;;9.43;;
20970;SDS011;10644;48.834;10.088;2023-11-19T00:49:16;12.87;;;8.20;;
20970;SDS011;10644;48.834;10.088;2023-11-19T00:51:42;13.33;;;8.70;;
20970;SDS011;10644;48.834;10.088;2023-11-19T00:54:07;16.03;;;9.80;;
20970;SDS011;10644;48.834;10.088;2023-11-19T00:56:32;14.53;;;9.20;;
20970;SDS011;10644;48.834;10.088;2023-11-19T00:58:58;12.63;;;8.90;;
20970;SDS011;10644;48.834;10.088;2023-11-19T01:01:25;15.20;;;9.07;;
20970;SDS011;10644;48.834;10.088;2023-11-19T01:03:50;11.70;;;8.20;;
20970;SDS011;10644;48.834;10.088;2023-11-19T01:06:30;12.20;;;9.10;;
20970;SDS011;10644;48.834;10.088;2023-11-19T01:08:56;11.13;;;7.50;;
20970;SDS011;10644;48.834;10.088;2023-11-19T01:11:22;14.33;;;8.50;;
20970;SDS011;10644;48.834;10.088;2023-11-19T01:13:48;15.57;;;9.10;;
20970;SDS011;10644;48.834;10.088;2023-11-19T01:16:13;16.83;;;10.97;;
20970;SDS011;10644;48.834;10.088;2023-11-19T01:18:39;13.10;;;8.70;;
20970;SDS011;10644;48.834;10.088;2023-11-19T01:21:04;13.33;;;8.40;;
20970;SDS011;10644;48.834;10.088;2023-11-19T01:23:30;14.37;;;8.53;;
20970;SDS011;10644;48.834;10.088;2023-11-19T01:25:55;12.90;;;8.53;;
20970;SDS011;10644;48.834;10.088;2023-11-19T01:28:21;17.00;;;8.63;;
20970;SDS011;10644;48.834;10.088;2023-11-19T01:30:50;14.77;;;9.60;;
20970;SDS011;10644;48.834;10.088;2023-11-19T01:33:16;11.90;;;7.60;;
20970;SDS011;10644;48.834;10.088;2023-11-19T01:35:41;11.60;;;8.30;;
20970;SDS011;10644;48.834;10.088;2023-11-19T01:38:06;10.73;;;7.10;;
20970;SDS011;10644;48.834;10.088;2023-11-19T01:40:33;12.63;;;8.20;;
20970;SDS011;10644;48.834;10.088;2023-11-19T01:42:59;11.20;;;8.00;;
20970;SDS011;10644;48.834;10.088;2023-11-19T01:45:28;11.43;;;8.63;;
20970;SDS011;10644;48.834;10.088;2023-11-19T01:47:59;10.97;;;6.93;;
20970;SDS011;10644;48.834;10.088;2023-11-19T01:50:28;14.97;;;9.47;;
20970;SDS011;10644;48.834;10.088;2023-11-19T01:52:55;13.77;;;9.00;;
20970;SDS011;10644;48.834;10.088;2023-11-19T01:55:25;14.10;;;8.23;;
20970;SDS011;10644;48.834;10.088;2023-11-19T01:57:53;12.97;;;8.10;;
20970;SDS011;10644;48.834;10.088;2023-11-19T02:00:24;11.37;;;6.77;;
20970;SDS011;10644;48.834;10.088;2023-11-19T02:02:50;14.03;;;8.90;;
20970;SDS011;10644;48.834;10.088;2023-11-19T02:05:17;8.17;;;6.47;;
20970;SDS011;10644;48.834;10.088;2023-11-19T02:07:42;15.03;;;8.10;;
20970;SDS011;10644;48.834;10.088;2023-11-19T02:10:08;10.50;;;6.57;;
20970;SDS011;10644;48.834;10.088;2023-11-19T02:12:38;10.17;;;6.27;;
20970;SDS011;10644;48.834;10.088;2023-11-19T02:15:08;4.17;;;2.87;;
20970;SDS011;10644;48.834;10.088;2023-11-19T02:17:37;4.60;;;3.80;;
20970;SDS011;10644;48.834;10.088;2023-11-19T02:20:05;3.30;;;2.50;;
20970;SDS011;10644;48.834;10.088;2023-11-19T02:22:36;2.13;;;1.63;;
20970;SDS011;10644;48.834;10.088;2023-11-19T02:25:04;1.60;;;1.50;;
20970;SDS011;10644;48.834;10.088;2023-11-19T02:27:53;1.50;;;1.40;;
20970;SDS011;10644;48.834;10.088;2023-11-19T02:30:21;1.57;;;1.40;;
20970;SDS011;10644;48.834;10.088;2023-11-19T02:32:51;1.53;;;1.43;;
20970;SDS011;10644;48.834;10.088;2023-11-19T02:35:18;1.50;;;1.40;;
20970;SDS011;10644;48.834;10.088;2023-11-19T02:37:43;1.80;;;1.40;;
20970;SDS011;10644;48.834;10.088;2023-11-19T02:40:10;1.93;;;1.73;;
20970;SDS011;10644;48.834;10.088;2023-11-19T02:42:35;2.60;;;2.33;;
20970;SDS011;10644;48.834;10.088;2023-11-19T02:45:01;2.20;;;2.00;;
20970;SDS011;10644;48.834;10.088;2023-11-19T02:47:27;2.73;;;2.40;;
20970;SDS011;10644;48.834;10.088;2023-11-19T02:49:55;3.70;;;3.37;;
20970;SDS011;10644;48.834;10.088;2023-11-19T02:52:20;3.43;;;3.10;;
20970;SDS011;10644;48.834;10.088;2023-11-19T02:54:46;8.17;;;3.13;;
20970;SDS011;10644;48.834;10.088;2023-11-19T02:57:11;4.20;;;3.30;;
20970;SDS011;10644;48.834;10.088;2023-11-19T02:59:38;3.30;;;3.00;;
20970;SDS011;10644;48.834;10.088;2023-11-19T03:02:06;3.70;;;3.20;;
20970;SDS011;10644;48.834;10.088;2023-11-19T03:04:35;3.90;;;3.50;;
20970;SDS011;10644;48.834;10.088;2023-11-19T03:07:00;4.03;;;3.27;;
20970;SDS011;10644;48.834;10.088;2023-11-19T03:09:28;4.60;;;3.60;;
20970;SDS011;10644;48.834;10.088;2023-11-19T03:11:54;3.20;;;2.90;;
20970;SDS011;10644;48.834;10.088;2023-11-19T03:14:20;4.90;;;4.00;;
20970;SDS011;10644;48.834;10.088;2023-11-19T03:16:45;4.07;;;3.67;;
20970;SDS011;10644;48.834;10.088;2023-11-19T03:19:13;3.67;;;3.20;;
20970;SDS011;10644;48.834;10.088;2023-11-19T03:21:40;4.00;;;3.13;;
20970;SDS011;10644;48.834;10.088;2023-11-19T03:24:05;3.00;;;2.70;;
20970;SDS011;10644;48.834;10.088;2023-11-19T03:26:34;3.13;;;2.83;;
20970;SDS011;10644;48.834;10.088;2023-11-19T03:29:00;3.90;;;3.50;;
20970;SDS011;10644;48.834;10.088;2023-11-19T03:31:26;3.50;;;2.97;;
20970;SDS011;10644;48.834;10.088;2023-11-19T03:33:51;4.10;;;2.47;;
20970;SDS011;10644;48.834;10.088;2023-11-19T03:36:17;5.03;;;2.40;;
20970;SDS011;10644;48.834;10.088;2023-11-19T03:38:42;3.13;;;2.83;;
20970;SDS011;10644;48.834;10.088;2023-11-19T03:41:14;3.23;;;2.80;;
20970;SDS011;10644;48.834;10.088;2023-11-19T03:43:40;3.60;;;2.30;;
20970;SDS011;10644;48.834;10.088;2023-11-19T03:46:21;2.20;;;2.10;;
20970;SDS011;10644;48.834;10.088;2023-11-19T03:48:47;3.57;;;2.60;;
20970;SDS011;10644;48.834;10.088;2023-11-19T03:51:13;3.50;;;2.53;;
20970;SDS011;10644;48.834;10.088;2023-11-19T03:53:44;3.53;;;1.97;;
20970;SDS011;10644;48.834;10.088;2023-11-19T03:56:10;2.77;;;2.57;;
20970;SDS011;10644;48.834;10.088;2023-11-19T03:58:37;2.77;;;2.50;;
20970;SDS011;10644;48.834;10.088;2023-11-19T04:01:03;3.10;;;2.30;;
20970;SDS011;10644;48.834;10.088;2023-11-19T04:03:31;2.20;;;2.00;;
20970;SDS011;10644;48.834;10.088;2023-11-19T04:05:57;2.07;;;1.87;;
20970;SDS011;10644;48.834;10.088;2023-11-19T04:08:22;1.70;;;1.60;;
20970;SDS011;10644;48.834;10.088;2023-11-19T04:10:50;1.60;;;1.50;;
20970;SDS011;10644;48.834;10.088;2023-11-19T04:13:15;2.20;;;1.40;;
20970;SDS011;10644;48.834;10.088;2023-11-19T04:15:41;1.60;;;1.50;;
20970;SDS011;10644;48.834;10.088;2023-11-19T04:18:08;2.10;;;1.57;;
20970;SDS011;10644;48.834;10.088;2023-11-19T04:20:34;1.60;;;1.30;;
20970;SDS011;10644;48.834;10.088;2023-11-19T04:22:59;1.83;;;1.20;;
20970;SDS011;10644;48.834;10.088;2023-11-19T04:25:25;1.07;;;0.97;;
20970;SDS011;10644;48.834;10.088;2023-11-19T04:27:51;1.00;;;0.90;;
20970;SDS011;10644;48.834;10.088;2023-11-19T04:30:18;1.20;;;1.10;;
20970;SDS011;10644;48.834;10.088;2023-11-19T04:32:44;0.90;;;0.77;;
20970;SDS011;10644;48.834;10.088;2023-11-19T04:35:13;1.10;;;0.90;;
20970;SDS011;10644;48.834;10.088;2023-11-19T04:37:39;0.90;;;0.70;;
20970;SDS011;10644;48.834;10.088;2023-11-19T04:40:04;0.93;;;0.83;;
20970;SDS011;10644;48.834;10.088;2023-11-19T04:42:30;1.67;;;0.90;;
20970;SDS011;10644;48.834;10.088;2023-11-19T04:44:57;0.90;;;0.77;;
20970;SDS011;10644;48.834;10.088;2023-11-19T04:47:22;1.17;;;0.73;;
20970;SDS011;10644;48.834;10.088;2023-11-19T04:49:47;0.90;;;0.80;;
20970;SDS011;10644;48.834;10.088;2023-11-19T04:52:13;1.13;;;0.90;;
20970;SDS011;10644;48.834;10.088;2023-11-19T04:54:42;1.00;;;0.70;;
20970;SDS011;10644;48.834;10.088;2023-11-19T04:57:10;0.90;;;0.80;;
20970;SDS011;10644;48.834;10.088;2023-11-19T04:59:36;0.90;;;0.77;;
20970;SDS011;10644;48.834;10.088;2023-11-19T05:02:02;0.90;;;0.80;;
20970;SDS011;10644;48.834;10.088;2023-11-19T05:04:30;1.13;;;0.90;;
20970;SDS011;10644;48.834;10.088;2023-11-19T05:06:55;1.10;;;0.90;;
20970;SDS011;10644;48.834;10.088;2023-11-19T05:09:21;1.17;;;1.07;;
20970;SDS011;10644;48.834;10.088;2023-11-19T05:11:46;1.67;;;1.10;;
20970;SDS011;10644;48.834;10.088;2023-11-19T05:14:11;1.83;;;1.53;;
20970;SDS011;10644;48.834;10.088;2023-11-19T05:16:39;1.00;;;0.90;;
20970;SDS011;10644;48.834;10.088;2023-11-19T05:19:05;0.90;;;0.80;;
20970;SDS011;10644;48.834;10.088;2023-11-19T05:21:30;3.90;;;1.00;;
20970;SDS011;10644;48.834;10.088;2023-11-19T05:23:56;1.23;;;1.10;;
20970;SDS011;10644;48.834;10.088;2023-11-19T05:26:22;4.80;;;1.00;;
20970;SDS011;10644;48.834;10.088;2023-11-19T05:28:48;1.10;;;1.00;;
20970;SDS011;10644;48.834;10.088;2023-11-19T05:31:17;1.43;;;0.90;;
20970;SDS011;10644;48.834;10.088;2023-11-19T05:33:43;1.00;;;0.90;;
20970;SDS011;10644;48.834;10.088;2023-11-19T05:36:08;4.83;;;1.00;;
20970;SDS011;10644;48.834;10.088;2023-11-19T05:38:35;1.10;;;0.90;;
20970;SDS011;10644;48.834;10.088;2023-11-19T05:41:02;1.00;;;0.87;;
20970;SDS011;10644;48.834;10.088;2023-11-19T05:43:27;3.47;;;0.90;;
20970;SDS011;10644;48.834;10.088;2023-11-19T05:45:52;1.83;;;1.10;;
20970;SDS011;10644;48.834;10.088;2023-11-19T05:48:18;1.83;;;1.23;;
20970;SDS011;10644;48.834;10.088;2023-11-19T05:50:43;1.00;;;0.90;;
20970;SDS011;10644;48.834;10.088;2023-11-19T05:53:09;1.10;;;1.00;;
20970;SDS011;10644;48.834;10.088;2023-11-19T05:55:38;1.40;;;1.10;;
20970;SDS011;10644;48.834;10.088;2023-11-19T05:58:11;1.50;;;1.00;;
20970;SDS011;10644;48.834;10.088;2023-11-19T06:00:37;1.00;;;0.90;;
20970;SDS011;10644;48.834;10.088;2023-11-19T06:03:04;1.50;;;0.90;;
20970;SDS011;10644;48.834;10.088;2023-11-19T06:05:29;1.23;;;1.07;;
20970;SDS011;10644;48.834;10.088;2023-11-19T06:07:54;1.40;;;1.30;;
20970;SDS011;10644;48.834;10.088;2023-11-19T06:10:20;1.17;;;1.07;;
20970;SDS011;10644;48.834;10.088;2023-11-19T06:12:46;2.53;;;1.10;;
20970;SDS011;10644;48.834;10.088;2023-11-19T06:15:12;1.63;;;1.40;;
20970;SDS011;10644;48.834;10.088;2023-11-19T06:17:38;2.60;;;2.40;;
20970;SDS011;10644;48.834;10.088;2023-11-19T06:20:04;3.63;;;1.40;;
20970;SDS011;10644;48.834;10.088;2023-11-19T06:22:30;1.10;;;1.00;;
20970;SDS011;10644;48.834;10.088;2023-11-19T06:24:56;1.40;;;1.27;;
20970;SDS011;10644;48.834;10.088;2023-11-19T06:27:21;1.57;;;1.10;;
20970;SDS011;10644;48.834;10.088;2023-11-19T06:29:47;1.33;;;1.23;;
20970;SDS011;10644;48.834;10.088;2023-11-19T06:32:12;1.10;;;1.00;;
20970;SDS011;10644;48.834;10.088;2023-11-19T06:34:38;1.37;;;1.00;;
20970;SDS011;10644;48.834;10.088;2023-11-19T06:37:03;1.10;;;1.00;;
20970;SDS011;10644;48.834;10.088;2023-11-19T06:39:29;1.30;;;1.00;;
20970;SDS011;10644;48.834;10.088;2023-11-19T06:41:56;1.10;;;0.90;;
20970;SDS011;10644;48.834;10.088;2023-11-19T06:44:25;1.10;;;1.00;;
20970;SDS011;10644;48.834;10.088;2023-11-19T06:46:53;1.00;;;0.90;;
20970;SDS011;10644;48.834;10.088;2023-11-19T06:49:18;1.63;;;1.33;;
20970;SDS011;10644;48.834;10.088;2023-11-19T06:51:44;1.30;;;1.20;;
20970;SDS011;10644;48.834;10.088;2023-11-19T06:54:11;2.83;;;1.37;;
20970;SDS011;10644;48.834;10.088;2023-11-19T06:56:36;3.67;;;1.43;;
20970;SDS011;10644;48.834;10.088;2023-11-19T06:59:02;1.73;;;1.17;;
20970;SDS011;10644;48.834;10.088;2023-11-19T07:01:27;2.40;;;1.63;;
20970;SDS011;10644;48.834;10.088;2023-11-19T07:03:59;2.17;;;1.90;;
20970;SDS011;10644;48.834;10.088;2023-11-19T07:06:27;1.07;;;0.87;;
20970;SDS011;10644;48.834;10.088;2023-11-19T07:08:52;1.00;;;0.80;;
20970;SDS011;10644;48.834;10.088;2023-11-19T07:11:20;0.90;;;0.80;;
20970;SDS011;10644;48.834;10.088;2023-11-19T07:13:45;1.70;;;1.33;;
20970;SDS011;10644;48.834;10.088;2023-11-19T07:16:13;1.70;;;1.30;;
20970;SDS011;10644;48.834;10.088;2023-11-19T07:18:39;2.17;;;1.57;;
20970;SDS011;10644;48.834;10.088;2023-11-19T07:21:04;1.20;;;1.00;;
20970;SDS011;10644;48.834;10.088;2023-11-19T07:23:30;2.90;;;1.10;;
20970;SDS011;10644;48.834;10.088;2023-11-19T07:25:56;1.83;;;1.53;;
20970;SDS011;10644;48.834;10.088;2023-11-19T07:28:21;1.90;;;1.43;;
20970;SDS011;10644;48.834;10.088;2023-11-19T07:30:47;1.97;;;1.27;;
20970;SDS011;10644;48.834;10.088;2023-11-19T07:33:12;1.33;;;1.23;;
20970;SDS011;10644;48.834;10.088;2023-11-19T07:35:38;2.23;;;1.17;;
20970;SDS011;10644;48.834;10.088;2023-11-19T07:38:04;1.47;;;1.07;;
20970;SDS011;10644;48.834;10.088;2023-11-19T07:40:30;2.23;;;1.30;;
20970;SDS011;10644;48.834;10.088;2023-11-19T07:42:55;2.10;;;1.47;;
20970;SDS011;10644;48.834;10.088;2023-11-19T07:45:23;1.83;;;1.33;;
20970;SDS011;10644;48.834;10.088;2023-11-19T07:47:48;1.30;;;1.20;;
20970;SDS011;10644;48.834;10.088;2023-11-19T07:50:13;1.60;;;1.33;;
20970;SDS011;10644;48.834;10.088;2023-11-19T07:52:41;1.87;;;1.33;;
20970;SDS011;10644;48.834;10.088;2023-11-19T07:55:07;1.20;;;1.03;;
20970;SDS011;10644;48.834;10.088;2023-11-19T07:57:32;2.50;;;1.20;;
20970;SDS011;10644;48.834;10.088;2023-11-19T07:59:58;1.77;;;1.17;;
20970;SDS011;10644;48.834;10.088;2023-11-19T08:02:23;1.37;;;1.07;;
20970;SDS011;10644;48.834;10.088;2023-11-19T08:04:52;1.53;;;0.97;;
20970;SDS011;10644;48.834;10.088;2023-11-19T08:07:23;2.00;;;1.17;;
20970;SDS011;10644;48.834;10.088;2023-11-19T08:09:48;1.67;;;0.90;;
20970;SDS011;10644;48.834;10.088;2023-11-19T08:12:14;2.40;;;1.10;;
20970;SDS011;10644;48.834;10.088;2023-11-19T08:14:42;3.83;;;1.43;;
20970;SDS011;10644;48.834;10.088;2023-11-19T08:17:09;1.47;;;1.10;;
20970;SDS011;10644;48.834;10.088;2023-11-19T08:19:34;1.47;;;1.23;;
20970;SDS011;10644;48.834;10.088;2023-11-19T08:21:59;1.43;;;1.00;;
20970;SDS011;10644;48.834;10.088;2023-11-19T08:24:25;2.37;;;1.90;;
20970;SDS011;10644;48.834;10.088;2023-11-19T08:26:50;1.10;;;0.90;;
20970;SDS011;10644;48.834;10.088;2023-11-19T08:29:15;1.30;;;0.97;;
20970;SDS011;10644;48.834;10.088;2023-11-19T08:31:41;1.77;;;1.23;;
20970;SDS011;10644;48.834;10.088;2023-11-19T08:34:07;2.60;;;1.00;;
20970;SDS011;10644;48.834;10.088;2023-11-19T08:36:35;1.50;;;1.10;;
20970;SDS011;10644;48.834;10.088;2023-11-19T08:39:00;1.33;;;1.23;;
20970;SDS011;10644;48.834;10.088;2023-11-19T08:41:28;1.43;;;1.20;;
20970;SDS011;10644;48.834;10.088;2023-11-19T08:43:56;1.20;;;0.80;;
20970;SDS011;10644;48.834;10.088;2023-11-19T08:46:21;1.47;;;1.37;;
20970;SDS011;10644;48.834;10.088;2023-11-19T08:48:50;1.10;;;1.00;;
20970;SDS011;10644;48.834;10.088;2023-11-19T08:51:15;1.20;;;1.10;;
20970;SDS011;10644;48.834;10.088;2023-11-19T08:53:41;1.30;;;1.13;;
20970;SDS011;10644;48.834;10.088;2023-11-19T08:56:07;1.20;;;1.00;;
20970;SDS011;10644;48.834;10.088;2023-11-19T08:58:32;1.10;;;1.00;;
20970;SDS011;10644;48.834;10.088;2023-11-19T09:00:58;1.23;;;1.07;;
20970;SDS011;10644;48.834;10.088;2023-11-19T09:03:30;1.20;;;0.90;;
20970;SDS011;10644;48.834;10.088;2023-11-19T09:05:56;1.17;;;1.07;;
20970;SDS011;10644;48.834;10.088;2023-11-19T09:08:21;1.40;;;1.30;;
20970;SDS011;10644;48.834;10.088;2023-11-19T09:10:47;2.17;;;1.77;;
20970;SDS011;10644;48.834;10.088;2023-11-19T09:13:13;3.20;;;1.70;;
20970;SDS011;10644;48.834;10.088;2023-11-19T09:15:38;1.90;;;1.00;;
20970;SDS011;10644;48.834;10.088;2023-11-19T09:18:03;2.30;;;1.10;;
20970;SDS011;10644;48.834;10.088;2023-11-19T09:20:29;1.50;;;1.40;;
20970;SDS011;10644;48.834;10.088;2023-11-19T09:23:03;1.20;;;1.03;;
20970;SDS011;10644;48.834;10.088;2023-11-19T09:25:28;2.40;;;1.50;;
20970;SDS011;10644;48.834;10.088;2023-11-19T09:27:56;3.13;;;1.87;;
20970;SDS011;10644;48.834;10.088;2023-11-19T09:30:21;1.40;;;1.20;;
20970;SDS011;10644;48.834;10.088;2023-11-19T09:32:47;2.90;;;1.20;;
20970;SDS011;10644;48.834;10.088;2023-11-19T09:35:13;1.20;;;1.00;;
20970;SDS011;10644;48.834;10.088;2023-11-19T09:37:39;1.07;;;0.90;;
20970;SDS011;10644;48.834;10.088;2023-11-19T09:40:05;1.60;;;1.30;;
20970;SDS011;10644;48.834;10.088;2023-11-19T09:42:36;1.50;;;1.03;;
20970;SDS011;10644;48.834;10.088;2023-11-19T09:45:10;1.20;;;1.07;;
20970;SDS011;10644;48.834;10.088;2023-11-19T09:47:39;1.30;;;1.20;;
20970;SDS011;10644;48.834;10.088;2023-11-19T09:50:05;1.30;;;1.20;;
20970;SDS011;10644;48.834;10.088;2023-11-19T09:52:31;1.83;;;1.37;;
20970;SDS011;10644;48.834;10.088;2023-11-19T09:54:56;3.27;;;1.27;;
20970;SDS011;10644;48.834;10.088;2023-11-19T09:57:22;1.13;;;0.93;;
20970;SDS011;10644;48.834;10.088;2023-11-19T09:59:47;1.53;;;1.43;;
20970;SDS011;10644;48.834;10.088;2023-11-19T10:02:13;1.30;;;1.20;;
20970;SDS011;10644;48.834;10.088;2023-11-19T10:04:39;1.60;;;1.13;;
20970;SDS011;10644;48.834;10.088;2023-11-19T10:07:07;1.40;;;1.30;;
20970;SDS011;10644;48.834;10.088;2023-11-19T10:09:33;1.40;;;1.10;;
20970;SDS011;10644;48.834;10.088;2023-11-19T10:11:58;1.60;;;1.50;;
20970;SDS011;10644;48.834;10.088;2023-11-19T10:14:24;7.17;;;3.83;;
20970;SDS011;10644;48.834;10.088;2023-11-19T10:16:49;4.87;;;1.70;;
20970;SDS011;10644;48.834;10.088;2023-11-19T10:19:20;1.63;;;1.23;;
20970;SDS011;10644;48.834;10.088;2023-11-19T10:21:46;1.47;;;1.27;;
20970;SDS011;10644;48.834;10.088;2023-11-19T10:24:11;4.50;;;2.67;;
20970;SDS011;10644;48.834;10.088;2023-11-19T10:26:36;1.90;;;1.47;;
20970;SDS011;10644;48.834;10.088;2023-11-19T10:29:02;1.70;;;1.00;;
20970;SDS011;10644;48.834;10.088;2023-11-19T10:31:29;3.63;;;1.40;;
20970;SDS011;10644;48.834;10.088;2023-11-19T10:33:55;1.20;;;1.10;;
20970;SDS011;10644;48.834;10.088;2023-11-19T10:36:21;1.30;;;1.20;;
20970;SDS011;10644;48.834;10.088;2023-11-19T10:38:55;1.30;;;1.20;;
20970;SDS011;10644;48.834;10.088;2023-11-19T10:43:53;1.10;;;0.93;;
20970;SDS011;10644;48.834;10.088;2023-11-19T10:46:18;1.33;;;1.10;;
20970;SDS011;10644;48.834;10.088;2023-11-19T10:48:47;1.93;;;1.27;;
20970;SDS011;10644;48.834;10.088;2023-11-19T10:51:13;2.33;;;1.40;;
20970;SDS011;10644;48.834;10.088;2023-11-19T10:53:47;2.13;;;1.77;;
20970;SDS011;10644;48.834;10.088;2023-11-19T10:56:15;1.07;;;0.97;;
20970;SDS011;10644;48.834;10.088;2023-11-19T10:58:44;2.70;;;1.40;;
20970;SDS011;10644;48.834;10.088;2023-11-19T11:01:16;2.20;;;1.30;;
20970;SDS011;10644;48.834;10.088;2023-11-19T11:03:46;1.13;;;1.03;;
20970;SDS011;10644;48.834;10.088;2023-11-19T11:06:12;1.33;;;1.10;;
20970;SDS011;10644;48.834;10.088;2023-11-19T11:08:38;8.37;;;1.20;;
20970;SDS011;10644;48.834;10.088;2023-11-19T11:11:05;2.67;;;1.37;;
20970;SDS011;10644;48.834;10.088;2023-11-19T11:13:31;1.40;;;1.00;;
20970;SDS011;10644;48.834;10.088;2023-11-19T11:15:57;1.93;;;1.20;;
20970;SDS011;10644;48.834;10.088;2023-11-19T11:18:23;2.90;;;1.30;;
20970;SDS011;10644;48.834;10.088;2023-11-19T11:20:50;1.20;;;1.10;;
20970;SDS011;10644;48.834;10.088;2023-11-19T11:26:00;2.80;;;1.30;;
20970;SDS011;10644;48.834;10.088;2023-11-19T11:28:37;1.77;;;1.03;;
20970;SDS011;10644;48.834;10.088;2023-11-19T11:31:19;1.20;;;1.10;;
20970;SDS011;10644;48.834;10.088;2023-11-19T11:36:49;2.33;;;1.30;;
20970;SDS011;10644;48.834;10.088;2023-11-19T11:39:20;1.97;;;1.00;;
20970;SDS011;10644;48.834;10.088;2023-11-19T11:41:51;2.10;;;1.23;;
20970;SDS011;10644;48.834;10.088;2023-11-19T11:50:08;1.10;;;1.00;;
20970;SDS011;10644;48.834;10.088;2023-11-19T11:55:34;2.83;;;1.00;;
20970;SDS011;10644;48.834;10.088;2023-11-19T11:58:06;1.33;;;1.23;;
20970;SDS011;10644;48.834;10.088;2023-11-19T12:00:40;2.07;;;1.00;;
20970;SDS011;10644;48.834;10.088;2023-11-19T12:03:10;1.00;;;0.80;;
20970;SDS011;10644;48.834;10.088;2023-11-19T12:05:43;1.40;;;1.10;;
20970;SDS011;10644;48.834;10.088;2023-11-19T12:08:10;2.63;;;1.50;;
20970;SDS011;10644;48.834;10.088;2023-11-19T12:10:47;3.13;;;1.20;;
20970;SDS011;10644;48.834;10.088;2023-11-19T12:13:16;2.93;;;1.63;;
20970;SDS011;10644;48.834;10.088;2023-11-19T12:18:26;1.60;;;1.40;;
20970;SDS011;10644;48.834;10.088;2023-11-19T12:20:52;3.73;;;1.40;;
20970;SDS011;10644;48.834;10.088;2023-11-19T12:23:20;3.03;;;1.67;;
20970;SDS011;10644;48.834;10.088;2023-11-19T12:25:45;1.90;;;1.47;;
20970;SDS011;10644;48.834;10.088;2023-11-19T12:28:16;5.50;;;2.03;;
20970;SDS011;10644;48.834;10.088;2023-11-19T12:30:45;1.77;;;1.27;;
20970;SDS011;10644;48.834;10.088;2023-11-19T12:33:12;2.47;;;1.60;;
20970;SDS011;10644;48.834;10.088;2023-11-19T12:35:41;3.53;;;1.27;;
20970;SDS011;10644;48.834;10.088;2023-11-19T12:38:08;3.77;;;1.63;;
20970;SDS011;10644;48.834;10.088;2023-11-19T12:41:04;2.70;;;1.90;;
20970;SDS011;10644;48.834;10.088;2023-11-19T12:43:29;2.83;;;1.67;;
20970;SDS011;10644;48.834;10.088;2023-11-19T12:45:55;2.50;;;1.73;;
20970;SDS011;10644;48.834;10.088;2023-11-19T12:48:20;1.90;;;1.40;;
20970;SDS011;10644;48.834;10.088;2023-11-19T12:50:55;1.60;;;1.27;;
20970;SDS011;10644;48.834;10.088;2023-11-19T12:53:22;2.53;;;1.43;;
20970;SDS011;10644;48.834;10.088;2023-11-19T12:55:49;2.33;;;1.50;;
20970;SDS011;10644;48.834;10.088;2023-11-19T12:58:31;3.90;;;1.40;;
20970;SDS011;10644;48.834;10.088;2023-11-19T13:01:07;2.17;;;1.60;;
20970;SDS011;10644;48.834;10.088;2023-11-19T13:03:35;2.40;;;1.70;;
20970;SDS011;10644;48.834;10.088;2023-11-19T13:08:39;4.10;;;1.83;;
20970;SDS011;10644;48.834;10.088;2023-11-19T13:11:06;3.77;;;2.50;;
20970;SDS011;10644;48.834;10.088;2023-11-19T13:16:29;2.07;;;1.60;;
20970;SDS011;10644;48.834;10.088;2023-11-19T13:18:55;3.23;;;2.20;;
20970;SDS011;10644;48.834;10.088;2023-11-19T13:21:22;7.03;;;1.83;;
20970;SDS011;10644;48.834;10.088;2023-11-19T13:23:47;2.50;;;1.57;;
20970;SDS011;10644;48.834;10.088;2023-11-19T13:26:13;4.20;;;1.43;;
20970;SDS011;10644;48.834;10.088;2023-11-19T13:28:38;2.17;;;1.37;;
20970;SDS011;10644;48.834;10.088;2023-11-19T13:31:04;2.17;;;1.43;;
20970;SDS011;10644;48.834;10.088;2023-11-19T13:33:29;2.83;;;1.73;;
20970;SDS011;10644;48.834;10.088;2023-11-19T13:35:55;2.10;;;1.67;;
20970;SDS011;10644;48.834;10.088;2023-11-19T13:38:21;1.77;;;1.53;;
20970;SDS011;10644;48.834;10.088;2023-11-19T13:40:48;2.37;;;1.73;;
20970;SDS011;10644;48.834;10.088;2023-11-19T13:43:13;4.50;;;1.87;;
20970;SDS011;10644;48.834;10.088;2023-11-19T13:45:39;2.80;;;1.50;;
20970;SDS011;10644;48.834;10.088;2023-11-19T13:48:04;2.37;;;1.80;;
20970;SDS011;10644;48.834;10.088;2023-11-19T13:50:29;2.17;;;1.50;;
20970;SDS011;10644;48.834;10.088;2023-11-19T13:52:59;5.23;;;1.90;;
20970;SDS011;10644;48.834;10.088;2023-11-19T13:55:24;2.13;;;1.57;;
20970;SDS011;10644;48.834;10.088;2023-11-19T13:57:50;2.30;;;1.80;;
20970;SDS011;10644;48.834;10.088;2023-11-19T14:00:15;3.43;;;1.63;;
20970;SDS011;10644;48.834;10.088;2023-11-19T14:02:45;4.60;;;1.33;;
20970;SDS011;10644;48.834;10.088;2023-11-19T14:05:12;2.87;;;1.63;;
20970;SDS011;10644;48.834;10.088;2023-11-19T14:07:39;2.20;;;1.40;;
20970;SDS011;10644;48.834;10.088;2023-11-19T14:10:04;2.87;;;1.17;;
20970;SDS011;10644;48.834;10.088;2023-11-19T14:12:31;3.10;;;1.60;;
20970;SDS011;10644;48.834;10.088;2023-11-19T14:14:57;2.57;;;1.40;;
20970;SDS011;10644;48.834;10.088;2023-11-19T14:17:23;3.17;;;1.60;;
20970;SDS011;10644;48.834;10.088;2023-11-19T14:19:51;3.10;;;1.20;;
20970;SDS011;10644;48.834;10.088;2023-11-19T14:22:16;4.43;;;1.80;;
20970;SDS011;10644;48.834;10.088;2023-11-19T14:24:42;3.13;;;1.90;;
20970;SDS011;10644;48.834;10.088;2023-11-19T14:27:08;2.87;;;1.53;;
20970;SDS011;10644;48.834;10.088;2023-11-19T14:29:36;3.27;;;1.70;;
20970;SDS011;10644;48.834;10.088;2023-11-19T14:32:02;4.13;;;2.00;;
20970;SDS011;10644;48.834;10.088;2023-11-19T14:34:31;2.10;;;1.30;;
20970;SDS011;10644;48.834;10.088;2023-11-19T14:36:57;3.43;;;1.80;;
20970;SDS011;10644;48.834;10.088;2023-11-19T14:39:23;3.17;;;1.67;;
20970;SDS011;10644;48.834;10.088;2023-11-19T14:41:48;3.67;;;1.97;;
20970;SDS011;10644;48.834;10.088;2023-11-19T14:44:14;4.73;;;2.60;;
20970;SDS011;10644;48.834;10.088;2023-11-19T14:46:40;3.97;;;1.87;;
20970;SDS011;10644;48.834;10.088;2023-11-19T14:49:05;4.77;;;2.50;;
20970;SDS011;10644;48.834;10.088;2023-11-19T14:51:35;4.47;;;1.47;;
20970;SDS011;10644;48.834;10.088;2023-11-19T14:54:00;3.73;;;1.83;;
20970;SDS011;10644;48.834;10.088;2023-11-19T14:56:26;4.33;;;1.93;;